Time;durP1;ratioP1;P1;durP2;ratioP2;P2;SDS_P1;SDS_P2;PMS_P1;PMS_P2;Temp;Humidity;BMP_temperature;BMP_pressure;BME280_temperature;BME280_humidity;BME280_pressure;Samples;Min_cycle;Max_cycle;Signal;HPM_P1;HPM_P2
2022/07/05 00:01:33;;;;;;;;;24.50;20.50;;;30.99;97579.70;;;;119405;1187;25667;-66
2022/07/05 00:04:01;;;;;;;;;23.67;20.67;;;31.00;97579.98;;;;119344;1187;26074;-66
2022/07/05 00:06:29;;;;;;;;;22.33;20.33;;;30.98;97578.83;;;;119366;1187;24956;-66
2022/07/05 00:08:57;;;;;;;;;24.25;21.00;;;30.93;97573.52;;;;119381;1186;25216;-65
2022/07/05 00:11:25;;;;;;;;;23.00;21.50;;;30.93;97569.15;;;;119350;1187;25165;-65
2022/07/05 00:13:53;;;;;;;;;28.25;22.25;;;30.90;97568.05;;;;119315;1186;25468;-65
2022/07/05 00:16:21;;;;;;;;;29.25;22.50;;;30.83;97565.11;;;;119300;1187;25685;-65
2022/07/05 00:18:49;;;;;;;;;18.75;15.00;;;30.74;97566.92;;;;119335;1187;25244;-65
2022/07/05 00:21:17;;;;;;;;;20.67;20.33;;;30.71;97568.77;;;;119198;1189;24840;-66
2022/07/05 00:23:46;;;;;;;;;19.75;19.25;;;30.69;97567.56;;;;119365;1187;25589;-66
2022/07/05 00:26:13;;;;;;;;;20.50;20.00;;;30.72;97569.30;;;;119226;1187;25537;-63
2022/07/05 00:28:41;;;;;;;;;21.50;19.25;;;30.69;97568.11;;;;119314;1187;24871;-64
2022/07/05 00:31:09;;;;;;;;;20.75;20.25;;;30.64;97575.05;;;;119355;1188;24747;-65
2022/07/05 00:33:37;;;;;;;;;22.75;22.50;;;30.59;97580.23;;;;119323;1187;25555;-65
2022/07/05 00:36:05;;;;;;;;;20.25;18.25;;;30.55;97582.08;;;;119319;1188;24992;-65
2022/07/05 00:38:33;;;;;;;;;24.50;20.50;;;30.53;97579.63;;;;119347;1188;25724;-65
2022/07/05 00:41:01;;;;;;;;;24.75;20.25;;;30.49;97581.27;;;;119155;1187;25578;-64
2022/07/05 00:43:29;;;;;;;;;29.50;22.25;;;30.45;97585.50;;;;119388;1188;25189;-64
2022/07/05 00:45:57;;;;;;;;;22.50;21.25;;;30.43;97585.02;;;;119226;1187;24834;-65
2022/07/05 00:48:25;;;;;;;;;20.25;18.75;;;30.41;97587.87;;;;119360;1187;25062;-65
2022/07/05 00:50:53;;;;;;;;;24.00;20.75;;;30.36;97585.60;;;;119388;1186;24736;-65
2022/07/05 00:53:21;;;;;;;;;20.25;20.25;;;30.37;97580.80;;;;119407;1187;25552;-65
2022/07/05 00:55:49;;;;;;;;;28.25;23.25;;;30.39;97582.48;;;;119362;1186;24906;-65
2022/07/05 00:58:17;;;;;;;;;21.50;19.75;;;30.33;97581.47;;;;119342;1188;25546;-64
2022/07/05 01:00:45;;;;;;;;;24.50;22.50;;;30.28;97577.78;;;;119388;1187;24911;-64
2022/07/05 01:03:13;;;;;;;;;27.00;24.25;;;30.24;97578.60;;;;119297;1187;25003;-65
2022/07/05 01:05:41;;;;;;;;;23.50;22.25;;;30.14;97583.27;;;;119364;1187;24731;-65
2022/07/05 01:08:10;;;;;;;;;15.50;11.00;;;30.09;97582.59;;;;119168;1189;24907;-65
2022/07/05 01:10:39;;;;;;;;;21.00;19.25;;;30.02;97578.19;;;;119206;1188;25230;-65
2022/07/05 01:13:08;;;;;;;;;19.25;17.50;;;30.03;97579.65;;;;119198;1188;25287;-63
2022/07/05 01:15:36;;;;;;;;;19.25;18.25;;;30.04;97584.13;;;;119372;1186;25285;-65
2022/07/05 01:18:08;;;;;;;;;19.25;18.50;;;30.09;97582.17;;;;119209;1187;24827;-64
2022/07/05 01:20:36;;;;;;;;;21.00;18.33;;;30.06;97575.06;;;;119320;1186;25634;-65
2022/07/05 01:23:04;;;;;;;;;25.25;21.25;;;30.00;97572.13;;;;119348;1188;25777;-64
2022/07/05 01:25:32;;;;;;;;;26.50;19.00;;;29.99;97575.27;;;;119380;1187;26060;-65
2022/07/05 01:28:02;;;;;;;;;19.67;19.00;;;29.97;97578.05;;;;119347;1186;25524;-64
2022/07/05 01:30:34;;;;;;;;;19.75;17.25;;;29.94;97580.20;;;;119325;1187;26456;-64
2022/07/05 01:33:05;;;;;;;;;23.50;20.75;;;29.91;97583.53;;;;119314;1188;24818;-65
2022/07/05 01:35:33;;;;;;;;;25.00;22.00;;;29.89;97584.09;;;;119360;1186;24971;-65
2022/07/05 01:38:02;;;;;;;;;23.50;20.75;;;29.90;97585.71;;;;119345;1187;25276;-65
2022/07/05 01:40:30;;;;;;;;;18.00;15.00;;;29.90;97589.19;;;;119231;1187;25006;-65
2022/07/05 01:42:59;;;;;;;;;23.75;18.75;;;29.90;97592.43;;;;119298;1186;25381;-65
2022/07/05 01:45:39;;;;;;;;;20.50;18.50;;;29.92;97594.23;;;;119329;1187;24926;-65
2022/07/05 01:48:18;;;;;;;;;20.50;18.75;;;29.87;97595.03;;;;119199;1187;25068;-66
2022/07/05 01:50:53;;;;;;;;;22.50;22.25;;;29.86;97594.22;;;;119339;1186;25337;-65
2022/07/05 01:53:28;;;;;;;;;19.50;18.50;;;29.84;97595.52;;;;119338;1187;25459;-65
2022/07/05 01:56:01;;;;;;;;;29.00;20.75;;;29.79;97596.16;;;;119315;1187;25144;-66
2022/07/05 01:58:30;;;;;;;;;19.00;19.00;;;29.70;97594.17;;;;119319;1188;25254;-65
2022/07/05 02:01:01;;;;;;;;;20.50;20.00;;;29.66;97589.73;;;;119194;1188;24878;-65
2022/07/05 02:03:29;;;;;;;;;23.00;19.75;;;29.63;97591.34;;;;119291;1188;25657;-66
2022/07/05 02:06:17;;;;;;;;;22.00;21.33;;;29.63;97592.81;;;;119341;1188;25193;-66
2022/07/05 02:08:45;;;;;;;;;20.75;19.25;;;29.63;97592.91;;;;119439;1186;24801;-65
2022/07/05 02:11:13;;;;;;;;;28.25;20.50;;;29.66;97594.80;;;;119369;1187;25588;-65
2022/07/05 02:13:41;;;;;;;;;21.00;20.25;;;29.62;97599.25;;;;119330;1187;25501;-64
2022/07/05 02:16:09;;;;;;;;;27.75;22.50;;;29.56;97598.77;;;;119323;1187;25400;-65
2022/07/05 02:18:37;;;;;;;;;22.25;18.25;;;29.50;97597.16;;;;119145;1188;25533;-64
2022/07/05 02:21:05;;;;;;;;;19.25;16.75;;;29.43;97592.42;;;;119130;1187;25585;-64
2022/07/05 02:23:33;;;;;;;;;27.25;21.25;;;29.37;97592.06;;;;119255;1188;25745;-64
2022/07/05 02:26:01;;;;;;;;;21.75;21.75;;;29.40;97587.08;;;;119344;1187;25153;-65
2022/07/05 02:28:30;;;;;;;;;21.25;19.75;;;29.40;97593.89;;;;119339;1188;26172;-64
2022/07/05 02:30:58;;;;;;;;;16.25;12.50;;;29.37;97597.23;;;;119353;1188;24850;-64
2022/07/05 02:33:26;;;;;;;;;27.50;25.00;;;29.35;97599.34;;;;119368;1188;25042;-65
2022/07/05 02:35:54;;;;;;;;;25.50;21.50;;;29.35;97598.27;;;;119447;1187;25258;-65
2022/07/05 02:38:23;;;;;;;;;27.50;24.25;;;29.41;97594.42;;;;119402;1186;25082;-64
2022/07/05 02:40:51;;;;;;;;;19.50;19.50;;;29.38;97597.86;;;;119226;1187;25254;-65
2022/07/05 02:43:18;;;;;;;;;25.75;20.00;;;29.33;97598.00;;;;119385;1186;24865;-65
2022/07/05 02:45:46;;;;;;;;;22.00;19.75;;;29.30;97597.46;;;;119352;1188;25219;-65
2022/07/05 02:48:14;;;;;;;;;15.50;15.00;;;29.27;97600.73;;;;119311;1187;25539;-65
2022/07/05 02:50:42;;;;;;;;;20.75;16.50;;;29.21;97597.02;;;;119326;1186;24855;-64
2022/07/05 02:53:10;;;;;;;;;20.33;19.33;;;29.20;97601.52;;;;119336;1187;25377;-64
2022/07/05 02:55:37;;;;;;;;;21.33;21.00;;;29.16;97600.40;;;;119325;1187;24998;-65
2022/07/05 02:58:05;;;;;;;;;25.00;20.00;;;29.15;97601.95;;;;119379;1187;25393;-64
2022/07/05 03:00:33;;;;;;;;;26.25;23.75;;;29.20;97600.31;;;;119272;1187;25071;-64
2022/07/05 03:03:01;;;;;;;;;22.50;19.75;;;29.22;97599.17;;;;119349;1187;25535;-65
2022/07/05 03:05:29;;;;;;;;;18.50;17.50;;;29.17;97600.97;;;;119384;1187;25343;-65
2022/07/05 03:07:58;;;;;;;;;22.75;22.00;;;29.17;97603.40;;;;119338;1186;25266;-64
2022/07/05 03:10:25;;;;;;;;;23.00;22.25;;;29.11;97601.73;;;;119316;1187;25582;-65
2022/07/05 03:12:53;;;;;;;;;27.25;21.50;;;29.04;97601.39;;;;119223;1187;25490;-64
2022/07/05 03:15:21;;;;;;;;;17.00;16.75;;;29.00;97603.77;;;;119360;1188;25369;-65
2022/07/05 03:17:49;;;;;;;;;22.75;18.50;;;28.99;97604.33;;;;119381;1187;25419;-65
2022/07/05 03:20:17;;;;;;;;;22.25;19.25;;;28.97;97609.21;;;;119354;1186;24954;-65
2022/07/05 03:22:45;;;;;;;;;24.75;21.50;;;28.98;97611.08;;;;119288;1187;25398;-65
2022/07/05 03:25:13;;;;;;;;;20.50;17.25;;;28.99;97611.96;;;;119306;1187;25167;-65
2022/07/05 03:27:40;;;;;;;;;22.75;20.25;;;28.95;97621.70;;;;119335;1187;24965;-65
2022/07/05 03:30:09;;;;;;;;;22.50;22.00;;;28.92;97622.71;;;;119361;1187;25073;-65
2022/07/05 03:32:37;;;;;;;;;21.00;20.00;;;28.95;97624.98;;;;119314;1187;24816;-65
2022/07/05 03:35:06;;;;;;;;;28.50;24.00;;;28.92;97624.56;;;;119345;1187;25138;-65
2022/07/05 03:37:34;;;;;;;;;23.00;19.75;;;28.87;97620.73;;;;119319;1187;25042;-65
2022/07/05 03:40:04;;;;;;;;;33.50;23.00;;;28.81;97622.39;;;;119346;1187;25038;-65
2022/07/05 03:42:32;;;;;;;;;26.00;23.00;;;28.81;97628.79;;;;119420;1187;25855;-64
2022/07/05 03:45:00;;;;;;;;;26.75;23.75;;;28.86;97630.09;;;;119279;1187;25024;-65
2022/07/05 03:47:28;;;;;;;;;33.67;25.33;;;28.88;97634.20;;;;119347;1187;25296;-65
2022/07/05 03:49:56;;;;;;;;;32.50;27.50;;;28.86;97634.80;;;;119387;1186;25360;-65
2022/07/05 03:52:24;;;;;;;;;35.75;28.50;;;28.90;97631.69;;;;119343;1186;24714;-65
2022/07/05 03:54:53;;;;;;;;;31.50;28.00;;;28.87;97631.41;;;;119203;1187;25398;-65
2022/07/05 03:57:21;;;;;;;;;30.50;23.25;;;28.87;97627.95;;;;119342;1188;25300;-65
2022/07/05 03:59:49;;;;;;;;;33.50;24.50;;;28.88;97626.42;;;;119341;1187;25098;-64
2022/07/05 04:02:17;;;;;;;;;42.50;32.25;;;28.86;97625.44;;;;119290;1187;25613;-63
2022/07/05 04:04:45;;;;;;;;;27.00;21.75;;;28.84;97624.86;;;;119363;1186;25896;-65
2022/07/05 04:07:12;;;;;;;;;29.25;23.50;;;28.82;97628.21;;;;119326;1187;25306;-64
2022/07/05 04:09:41;;;;;;;;;29.50;24.50;;;28.80;97627.45;;;;119384;1186;25191;-66
2022/07/05 04:12:09;;;;;;;;;32.25;25.25;;;28.85;97629.31;;;;119252;1187;25679;-64
2022/07/05 04:14:37;;;;;;;;;25.50;21.50;;;28.92;97629.34;;;;119416;1187;25017;-66
2022/07/05 04:17:05;;;;;;;;;18.25;17.25;;;29.07;97628.76;;;;119403;1187;24972;-66
2022/07/05 04:19:32;;;;;;;;;23.75;19.75;;;29.15;97624.06;;;;119329;1186;25619;-66
2022/07/05 04:22:00;;;;;;;;;25.75;19.50;;;29.18;97621.30;;;;119334;1188;25416;-68
2022/07/05 04:24:28;;;;;;;;;26.50;20.50;;;29.26;97619.60;;;;119362;1187;25461;-66
2022/07/05 04:26:56;;;;;;;;;21.50;16.25;;;29.37;97620.38;;;;119220;1187;25987;-66
2022/07/05 04:29:24;;;;;;;;;28.00;20.25;;;29.42;97629.27;;;;119360;1187;25084;-66
2022/07/05 04:31:52;;;;;;;;;17.75;16.50;;;29.52;97636.60;;;;119339;1187;25721;-66
2022/07/05 04:34:20;;;;;;;;;27.75;19.25;;;29.60;97633.98;;;;119330;1187;25115;-66
2022/07/05 04:36:48;;;;;;;;;20.25;17.50;;;29.69;97630.63;;;;119381;1187;25113;-66
2022/07/05 04:39:16;;;;;;;;;19.50;19.50;;;29.84;97630.34;;;;119405;1187;25204;-67
2022/07/05 04:41:44;;;;;;;;;21.75;19.00;;;30.00;97631.44;;;;119386;1186;25338;-61
2022/07/05 04:44:12;;;;;;;;;20.00;18.00;;;30.10;97634.95;;;;119393;1187;25630;-62
2022/07/05 04:46:40;;;;;;;;;20.00;19.00;;;30.21;97636.63;;;;119157;1187;25840;-65
2022/07/05 04:49:08;;;;;;;;;24.67;20.33;;;30.24;97632.16;;;;119163;1188;25193;-66
2022/07/05 04:51:36;;;;;;;;;25.00;19.75;;;30.29;97628.45;;;;119182;1187;24892;-68
2022/07/05 04:54:04;;;;;;;;;22.50;19.00;;;30.35;97629.02;;;;119185;1187;26453;-65
2022/07/05 04:56:32;;;;;;;;;23.25;21.00;;;30.44;97632.21;;;;119177;1187;25789;-68
2022/07/05 04:59:00;;;;;;;;;23.50;22.25;;;30.53;97631.15;;;;119129;1186;24997;-62
2022/07/05 05:01:28;;;;;;;;;24.00;20.25;;;30.61;97627.65;;;;119216;1188;25310;-63
2022/07/05 05:03:56;;;;;;;;;20.75;19.50;;;30.70;97624.89;;;;119191;1188;24737;-63
2022/07/05 05:06:24;;;;;;;;;25.00;19.75;;;30.86;97630.16;;;;119203;1187;25125;-66
2022/07/05 05:08:52;;;;;;;;;27.50;24.25;;;30.93;97627.20;;;;119181;1187;25511;-64
2022/07/05 05:11:20;;;;;;;;;26.75;23.50;;;31.03;97626.80;;;;119219;1187;25526;-71
2022/07/05 05:13:48;;;;;;;;;25.00;20.25;;;31.06;97627.15;;;;119135;1187;25477;-66
2022/07/05 05:16:15;;;;;;;;;38.25;27.00;;;31.06;97628.19;;;;119183;1188;25468;-65
2022/07/05 05:18:43;;;;;;;;;31.25;27.50;;;31.10;97628.33;;;;119121;1186;25840;-64
2022/07/05 05:21:11;;;;;;;;;33.50;24.75;;;31.11;97630.42;;;;119155;1188;25511;-62
2022/07/05 05:23:39;;;;;;;;;29.50;25.75;;;31.18;97631.04;;;;119143;1188;25291;-62
2022/07/05 05:26:07;;;;;;;;;35.50;29.00;;;31.21;97632.52;;;;119178;1188;25068;-62
2022/07/05 05:28:35;;;;;;;;;27.25;23.00;;;31.29;97630.80;;;;119183;1187;25359;-63
2022/07/05 05:31:02;;;;;;;;;33.50;23.50;;;31.39;97634.14;;;;119229;1188;25686;-63
2022/07/05 05:33:31;;;;;;;;;33.00;28.00;;;31.46;97634.82;;;;119194;1188;25051;-61
2022/07/05 05:35:59;;;;;;;;;37.25;31.25;;;31.51;97630.69;;;;119190;1187;25818;-63
2022/07/05 05:38:27;;;;;;;;;38.50;33.50;;;31.56;97627.45;;;;119173;1188;25935;-70
2022/07/05 05:40:55;;;;;;;;;33.25;30.00;;;31.62;97627.13;;;;119250;1188;24894;-69
2022/07/05 05:43:23;;;;;;;;;39.67;32.00;;;31.63;97625.36;;;;119154;1187;25137;-69
2022/07/05 05:45:51;;;;;;;;;45.25;33.25;;;31.60;97621.14;;;;119266;1187;24942;-70
2022/07/05 05:48:20;;;;;;;;;30.00;29.50;;;31.59;97621.74;;;;119325;1187;25709;-69
2022/07/05 05:50:48;;;;;;;;;43.25;34.00;;;31.61;97622.44;;;;119397;1186;25018;-70
2022/07/05 05:53:15;;;;;;;;;49.75;35.00;;;31.65;97625.19;;;;119230;1187;24748;-69
2022/07/05 05:55:44;;;;;;;;;48.75;33.75;;;31.65;97624.63;;;;119409;1186;24966;-69
2022/07/05 05:58:15;;;;;;;;;29.67;26.67;;;31.65;97623.73;;;;119390;1187;25383;-68
2022/07/05 06:00:47;;;;;;;;;41.00;31.50;;;31.69;97625.52;;;;119377;1187;24751;-69
2022/07/05 06:03:16;;;;;;;;;34.75;29.00;;;31.71;97625.49;;;;119351;1188;26330;-69
2022/07/05 06:05:44;;;;;;;;;44.25;32.75;;;31.68;97623.25;;;;119342;1187;25228;-68
2022/07/05 06:08:12;;;;;;;;;48.00;34.75;;;31.66;97623.06;;;;119316;1187;24871;-68
2022/07/05 06:10:40;;;;;;;;;35.25;29.75;;;31.61;97624.60;;;;119284;1187;25347;-69
2022/07/05 06:13:10;;;;;;;;;41.50;32.00;;;31.55;97624.70;;;;119143;1187;25646;-69
2022/07/05 06:15:37;;;;;;;;;45.75;35.00;;;31.53;97624.16;;;;119361;1188;24925;-69
2022/07/05 06:18:07;;;;;;;;;37.00;30.00;;;31.59;97623.82;;;;119333;1187;24982;-69
2022/07/05 06:20:37;;;;;;;;;43.00;34.00;;;31.63;97625.35;;;;119316;1186;25604;-69
2022/07/05 06:23:07;;;;;;;;;35.00;28.50;;;31.63;97626.17;;;;119338;1187;26142;-69
2022/07/05 06:25:36;;;;;;;;;34.50;27.00;;;31.65;97627.70;;;;119410;1188;25708;-69
2022/07/05 06:28:06;;;;;;;;;37.25;26.75;;;31.71;97630.07;;;;119366;1187;26023;-69
2022/07/05 06:30:36;;;;;;;;;33.00;26.00;;;31.73;97630.66;;;;119340;1187;24884;-69
2022/07/05 06:33:04;;;;;;;;;39.50;31.00;;;31.71;97628.36;;;;119416;1186;24819;-69
2022/07/05 06:35:32;;;;;;;;;36.00;27.75;;;31.73;97624.33;;;;119338;1187;25300;-69
2022/07/05 06:38:05;;;;;;;;;32.50;28.50;;;31.73;97623.25;;;;119194;1188;25640;-69
2022/07/05 06:40:38;;;;;;;;;35.50;30.00;;;31.71;97619.61;;;;119373;1187;25853;-67
2022/07/05 06:43:08;;;;;;;;;40.00;33.00;;;31.73;97620.00;;;;119211;1187;26314;-69
2022/07/05 06:45:36;;;;;;;;;36.00;32.50;;;31.74;97614.67;;;;119333;1187;25357;-69
2022/07/05 06:48:06;;;;;;;;;33.50;30.50;;;31.81;97609.70;;;;119372;1186;25424;-69
2022/07/05 06:50:36;;;;;;;;;42.25;29.50;;;31.80;97609.44;;;;119386;1186;24843;-70
2022/07/05 06:53:05;;;;;;;;;34.25;29.00;;;31.83;97610.56;;;;119168;1188;25517;-69
2022/07/05 06:55:33;;;;;;;;;34.00;29.50;;;31.82;97612.55;;;;119254;1187;25620;-69
2022/07/05 06:58:04;;;;;;;;;39.33;32.33;;;31.82;97610.84;;;;119213;1187;25336;-68
2022/07/05 07:00:40;;;;;;;;;41.75;32.00;;;31.79;97606.23;;;;119230;1187;25438;-69
2022/07/05 07:03:28;;;;;;;;;34.25;28.00;;;31.87;97603.64;;;;119330;1186;24802;-68
2022/07/05 07:06:16;;;;;;;;;30.75;27.75;;;31.88;97596.76;;;;119344;1187;25508;-69
2022/07/05 07:11:33;;;;;;;;;39.50;28.50;;;31.88;97589.67;;;;119413;1187;25595;-69
2022/07/05 07:14:01;;;;;;;;;41.00;32.50;;;31.91;97583.85;;;;119191;1187;24706;-68
2022/07/05 07:16:29;;;;;;;;;31.67;30.67;;;31.86;97584.96;;;;119373;1186;25505;-68
2022/07/05 07:18:57;;;;;;;;;36.50;31.00;;;31.85;97577.96;;;;119366;1187;24978;-68
2022/07/05 07:21:43;;;;;;;;;43.00;30.50;;;31.97;97574.17;;;;119222;1187;25352;-67
2022/07/05 07:24:12;;;;;;;;;42.00;33.50;;;31.97;97572.33;;;;119327;1186;25373;-67
2022/07/05 07:29:26;;;;;;;;;40.33;33.00;;;31.97;97564.40;;;;119296;1187;25249;-68
2022/07/05 07:31:56;;;;;;;;;46.50;35.00;;;31.89;97564.86;;;;119152;1187;24857;-68
2022/07/05 07:34:24;;;;;;;;;52.00;32.00;;;31.90;97560.58;;;;119334;1187;25292;-69
2022/07/05 07:36:52;;;;;;;;;39.00;29.75;;;31.90;97559.18;;;;119334;1186;25984;-68
2022/07/05 07:39:21;;;;;;;;;38.00;29.00;;;31.92;97557.58;;;;119379;1187;25236;-68
2022/07/05 07:41:48;;;;;;;;;38.00;30.75;;;31.97;97560.77;;;;119424;1188;26047;-67
2022/07/05 07:44:16;;;;;;;;;38.00;31.67;;;32.05;97563.05;;;;119406;1188;25400;-68
2022/07/05 07:46:44;;;;;;;;;41.75;32.75;;;32.08;97559.64;;;;119404;1187;25898;-69
2022/07/05 07:49:12;;;;;;;;;28.75;28.75;;;32.08;97557.51;;;;119227;1187;24911;-68
2022/07/05 07:51:40;;;;;;;;;36.50;31.00;;;32.03;97558.73;;;;119240;1188;25414;-68
2022/07/05 07:54:09;;;;;;;;;39.00;32.00;;;32.03;97558.05;;;;119354;1187;25594;-68
2022/07/05 07:56:37;;;;;;;;;45.50;34.50;;;32.01;97553.54;;;;119326;1188;25100;-68
2022/07/05 07:59:05;;;;;;;;;41.50;31.25;;;31.96;97552.64;;;;119317;1187;25795;-69
2022/07/05 08:01:33;;;;;;;;;42.33;29.67;;;31.93;97549.08;;;;119377;1187;25645;-68
2022/07/05 08:04:05;;;;;;;;;42.50;33.75;;;31.97;97548.42;;;;119282;1186;25469;-67
2022/07/05 08:06:33;;;;;;;;;35.75;30.00;;;32.05;97544.86;;;;119317;1188;25542;-68
2022/07/05 08:09:01;;;;;;;;;36.75;28.25;;;31.99;97542.37;;;;119346;1187;25390;-68
2022/07/05 08:11:28;;;;;;;;;32.25;27.25;;;31.97;97540.45;;;;119374;1186;25561;-68
2022/07/05 08:13:56;;;;;;;;;36.75;28.50;;;32.03;97537.30;;;;119325;1186;25597;-67
2022/07/05 08:16:24;;;;;;;;;47.75;30.50;;;32.05;97534.77;;;;119388;1187;25833;-69
2022/07/05 08:21:38;;;;;;;;;41.25;31.50;;;32.09;97531.27;;;;119370;1187;25560;-68
2022/07/05 08:24:11;;;;;;;;;40.00;32.50;;;32.05;97530.39;;;;119357;1188;25238;-68
2022/07/05 08:26:40;;;;;;;;;36.50;31.25;;;32.07;97527.38;;;;119334;1188;25309;-67
2022/07/05 08:29:10;;;;;;;;;26.75;25.50;;;32.07;97522.05;;;;119380;1188;25420;-68
2022/07/05 08:31:44;;;;;;;;;32.00;26.75;;;32.14;97526.62;;;;119378;1188;24978;-67
2022/07/05 08:34:12;;;;;;;;;31.00;28.00;;;32.20;97526.10;;;;119363;1187;24907;-68
2022/07/05 08:36:42;;;;;;;;;34.25;31.00;;;32.21;97523.69;;;;119415;1188;24843;-67
2022/07/05 08:39:10;;;;;;;;;31.25;27.00;;;32.22;97516.61;;;;119311;1188;25434;-69
2022/07/05 08:41:40;;;;;;;;;34.25;29.50;;;32.16;97519.69;;;;119405;1188;25037;-69
2022/07/05 08:44:08;;;;;;;;;31.50;29.75;;;32.22;97508.91;;;;119352;1187;25317;-69
2022/07/05 08:46:40;;;;;;;;;37.00;31.33;;;32.21;97507.92;;;;119340;1186;24829;-69
2022/07/05 08:49:09;;;;;;;;;35.25;28.75;;;32.13;97507.56;;;;119244;1188;25155;-69
2022/07/05 08:51:41;;;;;;;;;37.50;28.00;;;32.10;97508.64;;;;119198;1187;24942;-68
2022/07/05 08:54:11;;;;;;;;;35.50;29.25;;;32.06;97505.84;;;;119342;1188;25578;-68
2022/07/05 08:56:44;;;;;;;;;36.50;26.75;;;32.05;97505.95;;;;119343;1186;24767;-69
2022/07/05 08:59:31;;;;;;;;;39.25;32.25;;;32.14;97502.50;;;;119263;1186;25845;-68
2022/07/05 09:02:01;;;;;;;;;31.25;27.50;;;32.16;97504.90;;;;119337;1187;25023;-69
2022/07/05 09:04:32;;;;;;;;;36.25;29.25;;;32.13;97502.70;;;;119338;1187;25547;-67
2022/07/05 09:07:04;;;;;;;;;38.75;32.00;;;32.12;97505.45;;;;119272;1188;25555;-67
2022/07/05 09:09:33;;;;;;;;;33.50;27.00;;;32.15;97507.41;;;;119342;1186;25396;-68
2022/07/05 09:12:01;;;;;;;;;27.75;26.00;;;32.13;97503.51;;;;119352;1188;25320;-69
2022/07/05 09:14:50;;;;;;;;;34.50;27.25;;;32.15;97512.88;;;;119373;1187;26381;-69
2022/07/05 09:17:18;;;;;;;;;30.25;28.50;;;32.16;97504.02;;;;119349;1187;25657;-68
2022/07/05 09:20:06;;;;;;;;;36.50;32.50;;;32.16;97504.94;;;;119346;1187;25321;-66
2022/07/05 09:22:48;;;;;;;;;30.25;28.50;;;32.18;97502.04;;;;119419;1187;25559;-70
2022/07/05 09:25:23;;;;;;;;;34.00;27.00;;;32.21;97503.98;;;;119266;1188;25199;-69
2022/07/05 09:27:56;;;;;;;;;33.25;26.25;;;32.31;97503.47;;;;119357;1187;25428;-68
2022/07/05 09:30:24;;;;;;;;;27.75;25.50;;;32.38;97501.16;;;;119377;1186;24841;-66
2022/07/05 09:33:03;;;;;;;;;28.00;22.75;;;32.41;97502.06;;;;119352;1187;25332;-66
2022/07/05 09:35:34;;;;;;;;;32.25;27.25;;;32.38;97502.59;;;;119343;1187;25393;-66
2022/07/05 09:38:03;;;;;;;;;36.00;29.00;;;32.29;97494.92;;;;119340;1188;26233;-65
2022/07/05 09:40:32;;;;;;;;;31.50;27.50;;;32.27;97492.25;;;;119355;1186;25020;-64
2022/07/05 09:43:21;;;;;;;;;35.25;27.25;;;32.24;97488.98;;;;119189;1188;25566;-65
2022/07/05 09:46:03;;;;;;;;;31.25;27.75;;;32.25;97489.63;;;;119343;1187;25228;-66
2022/07/05 09:48:33;;;;;;;;;26.50;24.00;;;32.26;97478.95;;;;119363;1187;25757;-66
2022/07/05 09:51:12;;;;;;;;;25.67;25.67;;;32.29;97483.39;;;;119341;1188;25640;-65
2022/07/05 09:54:01;;;;;;;;;25.50;22.50;;;32.37;97479.92;;;;119430;1187;25424;-67
2022/07/05 09:56:46;;;;;;;;;21.75;18.50;;;32.46;97477.02;;;;119338;1187;25267;-65
2022/07/05 09:59:17;;;;;;;;;28.00;24.25;;;32.43;97474.91;;;;119355;1187;25244;-65
2022/07/05 10:01:46;;;;;;;;;29.25;24.75;;;32.36;97475.63;;;;119353;1188;26218;-65
2022/07/05 10:04:15;;;;;;;;;32.00;24.25;;;32.32;97476.14;;;;119330;1186;25677;-64
2022/07/05 10:06:43;;;;;;;;;29.00;22.00;;;32.26;97471.84;;;;119387;1187;25218;-65
2022/07/05 10:09:11;;;;;;;;;26.50;22.50;;;32.26;97470.22;;;;119190;1187;25773;-65
2022/07/05 10:11:41;;;;;;;;;16.50;12.25;;;32.29;97467.70;;;;119375;1186;25436;-65
2022/07/05 10:14:22;;;;;;;;;23.50;20.75;;;32.32;97463.19;;;;119383;1187;24890;-64
2022/07/05 10:17:00;;;;;;;;;21.00;19.25;;;32.35;97460.00;;;;119377;1186;24697;-67
2022/07/05 10:19:34;;;;;;;;;22.75;19.50;;;32.43;97459.79;;;;119375;1187;25578;-66
2022/07/05 10:22:02;;;;;;;;;21.50;18.00;;;32.45;97453.60;;;;119226;1187;24794;-65
2022/07/05 10:24:48;;;;;;;;;22.25;19.00;;;32.50;97442.83;;;;119141;1187;25165;-69
2022/07/05 10:27:18;;;;;;;;;16.25;13.25;;;32.50;97440.52;;;;119333;1187;25313;-67
2022/07/05 10:29:48;;;;;;;;;15.25;11.75;;;32.48;97442.20;;;;119338;1186;25266;-66
2022/07/05 10:32:17;;;;;;;;;18.00;17.00;;;32.45;97436.84;;;;119282;1187;25154;-65
2022/07/05 10:34:50;;;;;;;;;19.25;15.25;;;32.36;97436.04;;;;118983;1189;25117;-66
2022/07/05 10:37:27;;;;;;;;;22.75;21.00;;;32.31;97433.39;;;;119161;1187;25384;-67
2022/07/05 10:39:58;;;;;;;;;20.00;17.25;;;32.30;97437.20;;;;119283;1187;25627;-66
2022/07/05 10:42:31;;;;;;;;;18.00;16.50;;;32.24;97432.56;;;;119356;1188;24947;-66
2022/07/05 10:45:00;;;;;;;;;19.50;16.00;;;32.27;97424.22;;;;119206;1187;25648;-65
2022/07/05 10:47:29;;;;;;;;;21.50;17.25;;;32.29;97423.73;;;;119344;1187;24821;-64
2022/07/05 10:50:05;;;;;;;;;19.25;16.75;;;32.28;97422.14;;;;119382;1187;25621;-66
2022/07/05 10:52:33;;;;;;;;;22.75;19.25;;;32.34;97420.08;;;;119321;1187;25529;-65
2022/07/05 10:55:21;;;;;;;;;17.25;14.75;;;32.29;97415.36;;;;119366;1187;24885;-65
2022/07/05 10:58:20;;;;;;;;;17.00;15.50;;;32.34;97417.67;;;;119177;1187;25278;-65
2022/07/05 11:01:23;;;;;;;;;11.50;10.50;;;32.29;97410.31;;;;119153;1187;25575;-65
2022/07/05 11:03:58;;;;;;;;;21.00;18.25;;;32.32;97400.96;;;;119328;1186;26424;-66
2022/07/05 11:06:30;;;;;;;;;19.25;15.25;;;32.30;97400.85;;;;119225;1187;25117;-66
2022/07/05 11:09:00;;;;;;;;;15.25;14.25;;;32.32;97394.67;;;;119326;1186;25382;-65
2022/07/05 11:11:32;;;;;;;;;20.00;12.75;;;32.32;97395.70;;;;119385;1186;24885;-64
2022/07/05 11:14:32;;;;;;;;;15.75;13.75;;;32.40;97395.81;;;;119403;1187;25246;-65
2022/07/05 11:17:13;;;;;;;;;22.00;16.00;;;32.52;97391.00;;;;119303;1187;25487;-65
2022/07/05 11:20:10;;;;;;;;;19.00;16.75;;;32.58;97391.76;;;;119301;1187;25640;-65
2022/07/05 11:23:02;;;;;;;;;15.50;14.75;;;32.50;97390.88;;;;119350;1187;25669;-65
2022/07/05 11:25:33;;;;;;;;;13.75;11.50;;;32.52;97389.19;;;;119293;1187;25403;-66
2022/07/05 11:28:13;;;;;;;;;14.75;14.50;;;32.45;97388.06;;;;119197;1187;24840;-65
2022/07/05 11:30:48;;;;;;;;;18.25;13.25;;;32.46;97383.81;;;;119276;1188;25060;-67
2022/07/05 11:33:42;;;;;;;;;14.75;12.50;;;32.47;97390.89;;;;119172;1187;25703;-65
2022/07/05 11:36:26;;;;;;;;;12.25;11.75;;;32.53;97383.91;;;;119349;1187;24944;-66
2022/07/05 11:39:20;;;;;;;;;11.50;11.25;;;32.57;97385.13;;;;119393;1188;25022;-65
2022/07/05 11:41:49;;;;;;;;;11.50;11.50;;;32.63;97373.23;;;;119394;1187;25343;-66
2022/07/05 11:44:17;;;;;;;;;13.00;13.00;;;32.62;97370.94;;;;119352;1186;24804;-66
2022/07/05 11:46:45;;;;;;;;;11.67;11.67;;;32.58;97371.48;;;;119164;1187;25358;-65
2022/07/05 11:49:23;;;;;;;;;15.25;12.25;;;32.52;97370.94;;;;119319;1187;24992;-65
2022/07/05 11:52:01;;;;;;;;;15.00;11.25;;;32.52;97369.13;;;;119339;1187;25418;-65
2022/07/05 11:54:31;;;;;;;;;13.75;12.75;;;32.52;97363.66;;;;119295;1187;24814;-66
2022/07/05 11:57:00;;;;;;;;;8.25;8.25;;;32.48;97357.52;;;;119296;1188;25710;-66
2022/07/05 11:59:28;;;;;;;;;14.00;12.50;;;32.45;97356.34;;;;119382;1186;24995;-66
2022/07/05 12:01:56;;;;;;;;;13.00;13.00;;;32.50;97356.34;;;;119437;1186;25737;-67
2022/07/05 12:04:26;;;;;;;;;12.75;10.50;;;32.60;97355.22;;;;119403;1187;25299;-66
2022/07/05 12:06:55;;;;;;;;;11.50;11.50;;;32.63;97344.49;;;;119325;1187;25434;-67
2022/07/05 12:12:42;;;;;;;;;14.00;11.75;;;32.59;97340.88;;;;119259;1188;25523;-69
2022/07/05 12:15:09;;;;;;;;;18.75;14.50;;;32.78;97338.48;;;;119225;1188;24747;-68
2022/07/05 12:17:38;;;;;;;;;16.50;13.50;;;32.76;97338.94;;;;119220;1187;25660;-66
2022/07/05 12:20:08;;;;;;;;;14.25;12.50;;;32.77;97336.78;;;;119350;1186;25465;-68